sensor_id;sensor_type;location;lat;lon;timestamp;P1;durP1;ratioP1;P2;durP2;ratioP2
823;SDS011;373;49.342;8.146;2022-10-23T01:28:24;2.35;;;1.38;;
823;SDS011;373;49.342;8.146;2022-10-23T01:30:55;5.45;;;1.40;;
823;SDS011;373;49.342;8.146;2022-10-23T01:33:31;4.28;;;1.58;;
823;SDS011;373;49.342;8.146;2022-10-23T01:36:04;3.25;;;1.50;;
823;SDS011;373;49.342;8.146;2022-10-23T01:38:37;2.30;;;1.20;;
823;SDS011;373;49.342;8.146;2022-10-23T01:41:18;2.05;;;1.33;;
823;SDS011;373;49.342;8.146;2022-10-23T01:43:52;4.05;;;1.48;;
823;SDS011;373;49.342;8.146;2022-10-23T01:46:28;3.17;;;1.42;;
823;SDS011;373;49.342;8.146;2022-10-23T01:48:57;3.28;;;1.27;;
823;SDS011;373;49.342;8.146;2022-10-23T01:51:28;2.15;;;1.20;;
823;SDS011;373;49.342;8.146;2022-10-23T01:54:03;2.33;;;1.30;;
823;SDS011;373;49.342;8.146;2022-10-23T01:56:35;3.15;;;1.30;;
823;SDS011;373;49.342;8.146;2022-10-23T01:59:07;2.65;;;1.52;;
823;SDS011;373;49.342;8.146;2022-10-23T02:01:38;1.73;;;1.40;;
823;SDS011;373;49.342;8.146;2022-10-23T02:04:09;4.05;;;1.40;;
823;SDS011;373;49.342;8.146;2022-10-23T02:06:39;2.78;;;1.40;;
823;SDS011;373;49.342;8.146;2022-10-23T02:09:06;4.68;;;1.95;;
823;SDS011;373;49.342;8.146;2022-10-23T02:11:35;1.92;;;1.33;;
823;SDS011;373;49.342;8.146;2022-10-23T02:14:09;3.35;;;1.70;;
823;SDS011;373;49.342;8.146;2022-10-23T02:16:45;7.60;;;4.75;;
823;SDS011;373;49.342;8.146;2022-10-23T02:19:17;4.28;;;3.15;;
823;SDS011;373;49.342;8.146;2022-10-23T02:22:03;6.53;;;5.35;;
823;SDS011;373;49.342;8.146;2022-10-23T02:24:35;3.47;;;2.60;;
823;SDS011;373;49.342;8.146;2022-10-23T02:27:07;3.72;;;2.45;;
823;SDS011;373;49.342;8.146;2022-10-23T02:29:40;3.78;;;2.50;;
823;SDS011;373;49.342;8.146;2022-10-23T02:32:11;4.88;;;2.22;;
823;SDS011;373;49.342;8.146;2022-10-23T02:34:40;2.58;;;1.50;;
823;SDS011;373;49.342;8.146;2022-10-23T02:37:09;2.03;;;1.83;;
823;SDS011;373;49.342;8.146;2022-10-23T02:39:36;2.10;;;1.88;;
823;SDS011;373;49.342;8.146;2022-10-23T02:42:05;2.33;;;1.75;;
823;SDS011;373;49.342;8.146;2022-10-23T02:44:44;4.70;;;1.98;;
823;SDS011;373;49.342;8.146;2022-10-23T02:47:23;5.75;;;1.70;;
823;SDS011;373;49.342;8.146;2022-10-23T02:50:02;2.55;;;1.58;;
823;SDS011;373;49.342;8.146;2022-10-23T02:52:37;4.75;;;2.08;;
823;SDS011;373;49.342;8.146;2022-10-23T02:55:16;3.95;;;2.05;;
823;SDS011;373;49.342;8.146;2022-10-23T02:57:51;4.65;;;1.67;;
823;SDS011;373;49.342;8.146;2022-10-23T03:00:23;4.55;;;2.65;;
823;SDS011;373;49.342;8.146;2022-10-23T03:02:53;4.50;;;1.92;;
823;SDS011;373;49.342;8.146;2022-10-23T03:05:27;2.33;;;2.05;;
823;SDS011;373;49.342;8.146;2022-10-23T03:07:56;3.08;;;2.55;;
823;SDS011;373;49.342;8.146;2022-10-23T03:10:23;3.50;;;2.08;;
823;SDS011;373;49.342;8.146;2022-10-23T03:12:51;4.25;;;2.33;;
823;SDS011;373;49.342;8.146;2022-10-23T03:15:19;2.58;;;2.30;;
823;SDS011;373;49.342;8.146;2022-10-23T03:17:49;3.70;;;2.17;;
823;SDS011;373;49.342;8.146;2022-10-23T03:20:16;4.80;;;2.42;;
823;SDS011;373;49.342;8.146;2022-10-23T03:22:44;3.13;;;1.80;;
823;SDS011;373;49.342;8.146;2022-10-23T03:25:11;3.03;;;2.22;;
823;SDS011;373;49.342;8.146;2022-10-23T03:27:38;3.67;;;1.77;;
823;SDS011;373;49.342;8.146;2022-10-23T03:30:09;3.30;;;2.03;;
823;SDS011;373;49.342;8.146;2022-10-23T03:32:38;3.75;;;2.38;;
823;SDS011;373;49.342;8.146;2022-10-23T03:35:07;4.55;;;3.08;;
823;SDS011;373;49.342;8.146;2022-10-23T03:37:34;2.53;;;2.33;;
823;SDS011;373;49.342;8.146;2022-10-23T03:40:01;4.30;;;2.65;;
823;SDS011;373;49.342;8.146;2022-10-23T03:42:33;4.80;;;3.25;;
823;SDS011;373;49.342;8.146;2022-10-23T03:45:00;6.60;;;2.53;;
823;SDS011;373;49.342;8.146;2022-10-23T03:47:27;3.25;;;2.15;;
823;SDS011;373;49.342;8.146;2022-10-23T03:49:56;3.40;;;2.40;;
823;SDS011;373;49.342;8.146;2022-10-23T03:52:24;3.03;;;2.42;;
823;SDS011;373;49.342;8.146;2022-10-23T03:54:52;3.78;;;3.10;;
823;SDS011;373;49.342;8.146;2022-10-23T03:57:19;3.85;;;3.42;;
823;SDS011;373;49.342;8.146;2022-10-23T03:59:46;6.97;;;4.35;;
823;SDS011;373;49.342;8.146;2022-10-23T04:02:14;5.28;;;2.83;;
823;SDS011;373;49.342;8.146;2022-10-23T04:04:42;4.00;;;3.05;;
823;SDS011;373;49.342;8.146;2022-10-23T04:07:09;4.70;;;3.20;;
823;SDS011;373;49.342;8.146;2022-10-23T04:09:37;5.28;;;3.15;;
823;SDS011;373;49.342;8.146;2022-10-23T04:12:05;3.35;;;2.55;;
823;SDS011;373;49.342;8.146;2022-10-23T04:14:33;3.80;;;3.50;;
823;SDS011;373;49.342;8.146;2022-10-23T04:17:01;4.03;;;3.17;;
823;SDS011;373;49.342;8.146;2022-10-23T04:19:29;4.15;;;2.90;;
823;SDS011;373;49.342;8.146;2022-10-23T04:21:56;4.25;;;2.75;;
823;SDS011;373;49.342;8.146;2022-10-23T04:24:23;4.53;;;2.88;;
823;SDS011;373;49.342;8.146;2022-10-23T04:26:52;6.93;;;3.20;;
823;SDS011;373;49.342;8.146;2022-10-23T04:29:19;6.00;;;2.50;;
823;SDS011;373;49.342;8.146;2022-10-23T04:31:48;4.38;;;2.38;;
823;SDS011;373;49.342;8.146;2022-10-23T04:34:16;2.85;;;2.20;;
823;SDS011;373;49.342;8.146;2022-10-23T04:36:44;4.93;;;2.40;;
823;SDS011;373;49.342;8.146;2022-10-23T04:39:11;6.43;;;2.78;;
823;SDS011;373;49.342;8.146;2022-10-23T04:41:39;3.63;;;2.38;;
823;SDS011;373;49.342;8.146;2022-10-23T04:44:07;4.40;;;3.22;;
823;SDS011;373;49.342;8.146;2022-10-23T04:46:37;3.40;;;1.98;;
823;SDS011;373;49.342;8.146;2022-10-23T04:49:05;5.00;;;2.40;;
823;SDS011;373;49.342;8.146;2022-10-23T04:52:07;5.32;;;2.40;;
823;SDS011;373;49.342;8.146;2022-10-23T04:54:40;2.13;;;1.90;;
823;SDS011;373;49.342;8.146;2022-10-23T04:57:25;3.28;;;2.33;;
823;SDS011;373;49.342;8.146;2022-10-23T05:00:03;3.10;;;1.80;;
823;SDS011;373;49.342;8.146;2022-10-23T05:02:39;2.08;;;1.85;;
823;SDS011;373;49.342;8.146;2022-10-23T05:05:06;4.85;;;2.00;;
823;SDS011;373;49.342;8.146;2022-10-23T05:07:34;2.92;;;2.47;;
823;SDS011;373;49.342;8.146;2022-10-23T05:10:10;4.07;;;2.42;;
823;SDS011;373;49.342;8.146;2022-10-23T05:12:43;3.45;;;2.33;;
823;SDS011;373;49.342;8.146;2022-10-23T05:15:12;7.50;;;3.08;;
823;SDS011;373;49.342;8.146;2022-10-23T05:17:40;5.28;;;3.60;;
823;SDS011;373;49.342;8.146;2022-10-23T05:20:09;5.20;;;2.95;;
823;SDS011;373;49.342;8.146;2022-10-23T05:22:40;5.88;;;3.33;;
823;SDS011;373;49.342;8.146;2022-10-23T05:25:10;2.63;;;2.42;;
823;SDS011;373;49.342;8.146;2022-10-23T05:27:43;3.90;;;3.53;;
823;SDS011;373;49.342;8.146;2022-10-23T05:30:13;5.65;;;2.90;;
823;SDS011;373;49.342;8.146;2022-10-23T05:32:41;2.63;;;2.25;;
823;SDS011;373;49.342;8.146;2022-10-23T05:35:09;4.20;;;3.38;;
823;SDS011;373;49.342;8.146;2022-10-23T05:37:44;3.78;;;2.65;;
823;SDS011;373;49.342;8.146;2022-10-23T05:40:18;2.78;;;2.40;;
823;SDS011;373;49.342;8.146;2022-10-23T05:42:48;3.05;;;2.50;;
823;SDS011;373;49.342;8.146;2022-10-23T05:45:20;5.28;;;3.08;;
823;SDS011;373;49.342;8.146;2022-10-23T05:48:06;3.60;;;2.65;;
823;SDS011;373;49.342;8.146;2022-10-23T05:51:00;4.65;;;2.80;;
823;SDS011;373;49.342;8.146;2022-10-23T05:53:53;5.18;;;3.70;;
823;SDS011;373;49.342;8.146;2022-10-23T05:56:54;3.60;;;3.30;;
823;SDS011;373;49.342;8.146;2022-10-23T05:59:29;3.22;;;2.92;;
823;SDS011;373;49.342;8.146;2022-10-23T06:02:01;3.45;;;3.08;;
823;SDS011;373;49.342;8.146;2022-10-23T06:04:42;5.40;;;3.63;;
823;SDS011;373;49.342;8.146;2022-10-23T06:07:27;4.50;;;4.10;;
823;SDS011;373;49.342;8.146;2022-10-23T06:09:57;4.20;;;3.72;;
823;SDS011;373;49.342;8.146;2022-10-23T06:12:25;5.95;;;3.80;;
823;SDS011;373;49.342;8.146;2022-10-23T06:14:52;6.80;;;4.78;;
823;SDS011;373;49.342;8.146;2022-10-23T06:17:27;4.45;;;4.05;;
823;SDS011;373;49.342;8.146;2022-10-23T06:19:54;4.97;;;3.95;;
823;SDS011;373;49.342;8.146;2022-10-23T06:22:26;6.82;;;4.15;;
823;SDS011;373;49.342;8.146;2022-10-23T06:25:03;5.80;;;4.60;;
823;SDS011;373;49.342;8.146;2022-10-23T06:27:31;6.38;;;5.43;;
823;SDS011;373;49.342;8.146;2022-10-23T06:30:02;4.90;;;4.50;;
823;SDS011;373;49.342;8.146;2022-10-23T06:32:33;4.55;;;4.15;;
823;SDS011;373;49.342;8.146;2022-10-23T06:35:09;5.63;;;4.18;;
823;SDS011;373;49.342;8.146;2022-10-23T06:37:36;4.72;;;4.32;;
823;SDS011;373;49.342;8.146;2022-10-23T06:40:08;6.45;;;3.90;;
823;SDS011;373;49.342;8.146;2022-10-23T06:42:52;5.05;;;3.80;;
823;SDS011;373;49.342;8.146;2022-10-23T06:45:26;5.40;;;4.35;;
823;SDS011;373;49.342;8.146;2022-10-23T06:48:18;5.22;;;4.78;;
823;SDS011;373;49.342;8.146;2022-10-23T06:51:02;5.53;;;4.72;;
823;SDS011;373;49.342;8.146;2022-10-23T06:53:39;4.28;;;3.10;;
823;SDS011;373;49.342;8.146;2022-10-23T06:56:22;2.95;;;2.67;;
823;SDS011;373;49.342;8.146;2022-10-23T06:58:53;3.60;;;3.40;;
823;SDS011;373;49.342;8.146;2022-10-23T07:01:21;7.10;;;3.20;;
823;SDS011;373;49.342;8.146;2022-10-23T07:03:49;4.03;;;3.22;;
823;SDS011;373;49.342;8.146;2022-10-23T07:06:22;4.72;;;2.78;;
823;SDS011;373;49.342;8.146;2022-10-23T07:08:49;6.43;;;3.65;;
823;SDS011;373;49.342;8.146;2022-10-23T07:11:35;3.58;;;2.40;;
823;SDS011;373;49.342;8.146;2022-10-23T07:14:03;6.15;;;3.00;;
823;SDS011;373;49.342;8.146;2022-10-23T07:16:31;5.13;;;2.88;;
823;SDS011;373;49.342;8.146;2022-10-23T07:18:59;4.80;;;2.85;;
823;SDS011;373;49.342;8.146;2022-10-23T07:21:27;4.53;;;3.05;;
823;SDS011;373;49.342;8.146;2022-10-23T07:24:07;6.85;;;3.40;;
823;SDS011;373;49.342;8.146;2022-10-23T07:26:38;5.88;;;3.60;;
823;SDS011;373;49.342;8.146;2022-10-23T07:29:06;3.60;;;3.28;;
823;SDS011;373;49.342;8.146;2022-10-23T07:31:33;6.18;;;3.28;;
823;SDS011;373;49.342;8.146;2022-10-23T07:34:33;3.33;;;3.03;;
823;SDS011;373;49.342;8.146;2022-10-23T07:37:25;3.80;;;3.45;;
823;SDS011;373;49.342;8.146;2022-10-23T07:39:56;3.25;;;2.97;;
823;SDS011;373;49.342;8.146;2022-10-23T07:42:24;3.72;;;3.00;;
823;SDS011;373;49.342;8.146;2022-10-23T07:44:51;4.90;;;3.67;;
823;SDS011;373;49.342;8.146;2022-10-23T07:47:18;4.05;;;3.10;;
823;SDS011;373;49.342;8.146;2022-10-23T07:49:50;3.47;;;2.80;;
823;SDS011;373;49.342;8.146;2022-10-23T07:52:18;4.05;;;3.50;;
823;SDS011;373;49.342;8.146;2022-10-23T07:55:05;3.78;;;3.45;;
823;SDS011;373;49.342;8.146;2022-10-23T07:57:36;4.05;;;3.17;;
823;SDS011;373;49.342;8.146;2022-10-23T08:00:37;5.10;;;3.10;;
823;SDS011;373;49.342;8.146;2022-10-23T08:03:13;7.68;;;4.28;;
823;SDS011;373;49.342;8.146;2022-10-23T08:05:42;7.95;;;3.83;;
823;SDS011;373;49.342;8.146;2022-10-23T08:08:09;4.68;;;2.92;;
823;SDS011;373;49.342;8.146;2022-10-23T08:10:38;4.90;;;3.10;;
823;SDS011;373;49.342;8.146;2022-10-23T08:13:10;8.13;;;3.08;;
823;SDS011;373;49.342;8.146;2022-10-23T08:15:56;7.18;;;2.80;;
823;SDS011;373;49.342;8.146;2022-10-23T08:18:50;3.25;;;2.70;;
823;SDS011;373;49.342;8.146;2022-10-23T08:21:19;3.25;;;2.90;;
823;SDS011;373;49.342;8.146;2022-10-23T08:23:48;13.65;;;4.30;;
823;SDS011;373;49.342;8.146;2022-10-23T08:26:15;3.28;;;3.00;;
823;SDS011;373;49.342;8.146;2022-10-23T08:28:42;4.35;;;3.88;;
823;SDS011;373;49.342;8.146;2022-10-23T08:31:10;4.03;;;3.72;;
823;SDS011;373;49.342;8.146;2022-10-23T08:33:47;4.60;;;3.30;;
823;SDS011;373;49.342;8.146;2022-10-23T08:36:15;4.45;;;3.17;;
823;SDS011;373;49.342;8.146;2022-10-23T08:38:45;3.83;;;3.15;;
823;SDS011;373;49.342;8.146;2022-10-23T08:41:18;3.85;;;3.45;;
823;SDS011;373;49.342;8.146;2022-10-23T08:43:56;4.68;;;3.20;;
823;SDS011;373;49.342;8.146;2022-10-23T08:46:37;4.75;;;3.00;;
823;SDS011;373;49.342;8.146;2022-10-23T08:49:23;3.85;;;2.70;;
823;SDS011;373;49.342;8.146;2022-10-23T08:52:09;2.83;;;2.63;;
823;SDS011;373;49.342;8.146;2022-10-23T08:54:46;5.15;;;2.50;;
823;SDS011;373;49.342;8.146;2022-10-23T08:57:23;4.13;;;2.20;;
823;SDS011;373;49.342;8.146;2022-10-23T08:59:58;2.35;;;2.15;;
823;SDS011;373;49.342;8.146;2022-10-23T09:02:27;4.03;;;2.65;;
823;SDS011;373;49.342;8.146;2022-10-23T09:04:59;4.00;;;2.00;;
823;SDS011;373;49.342;8.146;2022-10-23T09:07:31;3.05;;;2.47;;
823;SDS011;373;49.342;8.146;2022-10-23T09:12:58;3.40;;;2.15;;
823;SDS011;373;49.342;8.146;2022-10-23T09:15:41;2.15;;;1.88;;
823;SDS011;373;49.342;8.146;2022-10-23T09:18:13;2.47;;;2.28;;
823;SDS011;373;49.342;8.146;2022-10-23T09:20:43;4.93;;;2.63;;
823;SDS011;373;49.342;8.146;2022-10-23T09:23:13;3.08;;;2.15;;
823;SDS011;373;49.342;8.146;2022-10-23T09:25:45;2.80;;;2.50;;
823;SDS011;373;49.342;8.146;2022-10-23T09:28:15;3.47;;;2.40;;
823;SDS011;373;49.342;8.146;2022-10-23T09:30:46;5.38;;;2.53;;
823;SDS011;373;49.342;8.146;2022-10-23T09:33:15;5.93;;;2.63;;
823;SDS011;373;49.342;8.146;2022-10-23T09:35:50;2.83;;;2.10;;
823;SDS011;373;49.342;8.146;2022-10-23T09:38:26;3.13;;;2.50;;
823;SDS011;373;49.342;8.146;2022-10-23T09:40:58;5.15;;;2.90;;
823;SDS011;373;49.342;8.146;2022-10-23T09:43:27;3.25;;;2.95;;
823;SDS011;373;49.342;8.146;2022-10-23T09:46:01;2.53;;;2.17;;
823;SDS011;373;49.342;8.146;2022-10-23T09:48:31;4.85;;;2.40;;
823;SDS011;373;49.342;8.146;2022-10-23T09:51:00;2.65;;;2.10;;
823;SDS011;373;49.342;8.146;2022-10-23T09:53:30;3.30;;;2.40;;
823;SDS011;373;49.342;8.146;2022-10-23T09:56:01;2.20;;;1.77;;
823;SDS011;373;49.342;8.146;2022-10-23T09:58:33;2.80;;;2.08;;
823;SDS011;373;49.342;8.146;2022-10-23T10:01:03;4.25;;;2.45;;
823;SDS011;373;49.342;8.146;2022-10-23T10:03:46;3.50;;;2.58;;
823;SDS011;373;49.342;8.146;2022-10-23T10:06:19;3.38;;;2.33;;
823;SDS011;373;49.342;8.146;2022-10-23T10:08:49;3.88;;;2.00;;
823;SDS011;373;49.342;8.146;2022-10-23T10:11:20;6.68;;;2.58;;
823;SDS011;373;49.342;8.146;2022-10-23T10:13:54;3.50;;;2.40;;
823;SDS011;373;49.342;8.146;2022-10-23T10:16:33;3.28;;;2.58;;
823;SDS011;373;49.342;8.146;2022-10-23T10:19:10;5.75;;;2.63;;
823;SDS011;373;49.342;8.146;2022-10-23T10:21:49;2.67;;;2.42;;
823;SDS011;373;49.342;8.146;2022-10-23T10:24:23;4.82;;;2.95;;
823;SDS011;373;49.342;8.146;2022-10-23T10:26:59;5.47;;;2.70;;
823;SDS011;373;49.342;8.146;2022-10-23T10:29:40;2.60;;;2.40;;
823;SDS011;373;49.342;8.146;2022-10-23T10:32:17;2.50;;;2.30;;
823;SDS011;373;49.342;8.146;2022-10-23T10:34:59;4.95;;;2.38;;
823;SDS011;373;49.342;8.146;2022-10-23T10:37:35;3.45;;;2.15;;
823;SDS011;373;49.342;8.146;2022-10-23T10:40:15;4.70;;;2.20;;
823;SDS011;373;49.342;8.146;2022-10-23T10:42:53;9.90;;;2.85;;
823;SDS011;373;49.342;8.146;2022-10-23T10:45:32;4.53;;;2.25;;
823;SDS011;373;49.342;8.146;2022-10-23T10:48:13;4.30;;;2.25;;
823;SDS011;373;49.342;8.146;2022-10-23T10:51:18;7.25;;;2.70;;
823;SDS011;373;49.342;8.146;2022-10-23T10:53:58;2.17;;;1.98;;
823;SDS011;373;49.342;8.146;2022-10-23T10:56:37;4.47;;;2.50;;
823;SDS011;373;49.342;8.146;2022-10-23T10:59:11;3.10;;;2.33;;
823;SDS011;373;49.342;8.146;2022-10-23T11:01:44;4.65;;;2.67;;
823;SDS011;373;49.342;8.146;2022-10-23T11:04:17;3.22;;;2.80;;
823;SDS011;373;49.342;8.146;2022-10-23T11:06:53;3.78;;;2.40;;
823;SDS011;373;49.342;8.146;2022-10-23T11:09:24;3.10;;;2.70;;
823;SDS011;373;49.342;8.146;2022-10-23T11:11:53;3.65;;;2.50;;
823;SDS011;373;49.342;8.146;2022-10-23T11:14:22;3.15;;;2.40;;
823;SDS011;373;49.342;8.146;2022-10-23T11:16:52;2.40;;;2.08;;
823;SDS011;373;49.342;8.146;2022-10-23T11:19:23;3.42;;;2.20;;
823;SDS011;373;49.342;8.146;2022-10-23T11:21:55;1.75;;;1.30;;
823;SDS011;373;49.342;8.146;2022-10-23T11:27:30;2.47;;;1.83;;
823;SDS011;373;49.342;8.146;2022-10-23T11:30:16;2.40;;;1.95;;
823;SDS011;373;49.342;8.146;2022-10-23T11:32:55;2.05;;;1.70;;
823;SDS011;373;49.342;8.146;2022-10-23T11:35:44;2.13;;;1.90;;
823;SDS011;373;49.342;8.146;2022-10-23T11:38:22;2.97;;;1.83;;
823;SDS011;373;49.342;8.146;2022-10-23T11:40:52;2.17;;;1.50;;
823;SDS011;373;49.342;8.146;2022-10-23T11:43:26;1.67;;;1.30;;
823;SDS011;373;49.342;8.146;2022-10-23T11:45:56;2.90;;;1.60;;
823;SDS011;373;49.342;8.146;2022-10-23T11:48:35;2.35;;;1.13;;
823;SDS011;373;49.342;8.146;2022-10-23T11:51:04;2.58;;;1.63;;
823;SDS011;373;49.342;8.146;2022-10-23T11:53:51;1.95;;;1.27;;
823;SDS011;373;49.342;8.146;2022-10-23T11:56:25;3.60;;;1.75;;
823;SDS011;373;49.342;8.146;2022-10-23T11:58:56;3.40;;;1.40;;
823;SDS011;373;49.342;8.146;2022-10-23T12:01:31;2.08;;;1.40;;
823;SDS011;373;49.342;8.146;2022-10-23T12:04:02;3.42;;;1.58;;
823;SDS011;373;49.342;8.146;2022-10-23T12:06:41;2.20;;;1.35;;
823;SDS011;373;49.342;8.146;2022-10-23T12:09:26;3.17;;;1.88;;
823;SDS011;373;49.342;8.146;2022-10-23T12:12:15;5.75;;;1.38;;
823;SDS011;373;49.342;8.146;2022-10-23T12:14:52;2.90;;;1.88;;
823;SDS011;373;49.342;8.146;2022-10-23T12:17:35;4.18;;;1.80;;
823;SDS011;373;49.342;8.146;2022-10-23T12:23:15;3.33;;;1.92;;
823;SDS011;373;49.342;8.146;2022-10-23T12:26:16;2.17;;;1.48;;
823;SDS011;373;49.342;8.146;2022-10-23T12:28:53;3.90;;;1.80;;
823;SDS011;373;49.342;8.146;2022-10-23T12:31:31;1.55;;;1.45;;
823;SDS011;373;49.342;8.146;2022-10-23T12:34:10;2.78;;;1.40;;
823;SDS011;373;49.342;8.146;2022-10-23T12:36:57;3.13;;;1.60;;
823;SDS011;373;49.342;8.146;2022-10-23T12:39:32;1.83;;;1.42;;
823;SDS011;373;49.342;8.146;2022-10-23T12:42:02;2.90;;;1.75;;
823;SDS011;373;49.342;8.146;2022-10-23T12:44:30;3.55;;;1.70;;
823;SDS011;373;49.342;8.146;2022-10-23T12:46:58;3.08;;;2.05;;
823;SDS011;373;49.342;8.146;2022-10-23T12:49:29;1.70;;;1.30;;
823;SDS011;373;49.342;8.146;2022-10-23T12:51:59;6.03;;;1.90;;
823;SDS011;373;49.342;8.146;2022-10-23T12:54:29;3.45;;;1.70;;
823;SDS011;373;49.342;8.146;2022-10-23T12:56:58;1.85;;;1.67;;
823;SDS011;373;49.342;8.146;2022-10-23T12:59:25;1.50;;;1.40;;
823;SDS011;373;49.342;8.146;2022-10-23T13:01:58;2.30;;;1.27;;
823;SDS011;373;49.342;8.146;2022-10-23T13:04:28;1.48;;;1.38;;
823;SDS011;373;49.342;8.146;2022-10-23T13:06:58;2.40;;;1.58;;
823;SDS011;373;49.342;8.146;2022-10-23T13:09:31;2.15;;;1.35;;
823;SDS011;373;49.342;8.146;2022-10-23T13:12:15;2.05;;;1.73;;
823;SDS011;373;49.342;8.146;2022-10-23T13:14:54;3.97;;;1.80;;
823;SDS011;373;49.342;8.146;2022-10-23T13:17:32;2.72;;;1.20;;
823;SDS011;373;49.342;8.146;2022-10-23T13:23:00;1.80;;;1.40;;
823;SDS011;373;49.342;8.146;2022-10-23T13:25:35;1.30;;;1.20;;
823;SDS011;373;49.342;8.146;2022-10-23T13:28:09;2.28;;;1.40;;
823;SDS011;373;49.342;8.146;2022-10-23T13:30:41;1.92;;;1.23;;
823;SDS011;373;49.342;8.146;2022-10-23T13:33:14;2.35;;;1.73;;
823;SDS011;373;49.342;8.146;2022-10-23T13:35:55;2.95;;;1.30;;
823;SDS011;373;49.342;8.146;2022-10-23T13:38:29;1.90;;;1.42;;
823;SDS011;373;49.342;8.146;2022-10-23T13:40:58;1.63;;;1.10;;
823;SDS011;373;49.342;8.146;2022-10-23T13:43:26;2.88;;;1.55;;
823;SDS011;373;49.342;8.146;2022-10-23T13:45:55;1.63;;;1.45;;
823;SDS011;373;49.342;8.146;2022-10-23T13:48:22;2.10;;;1.48;;
823;SDS011;373;49.342;8.146;2022-10-23T13:50:50;2.00;;;1.23;;
823;SDS011;373;49.342;8.146;2022-10-23T13:53:19;1.73;;;1.30;;
823;SDS011;373;49.342;8.146;2022-10-23T13:55:47;2.08;;;1.13;;
823;SDS011;373;49.342;8.146;2022-10-23T13:58:18;2.92;;;1.20;;
823;SDS011;373;49.342;8.146;2022-10-23T14:00:45;1.50;;;1.20;;
823;SDS011;373;49.342;8.146;2022-10-23T14:03:14;3.70;;;1.55;;
823;SDS011;373;49.342;8.146;2022-10-23T14:05:47;3.22;;;1.70;;
823;SDS011;373;49.342;8.146;2022-10-23T14:08:14;1.10;;;1.00;;
823;SDS011;373;49.342;8.146;2022-10-23T14:10:42;2.08;;;1.13;;
823;SDS011;373;49.342;8.146;2022-10-23T14:13:10;2.78;;;1.58;;
823;SDS011;373;49.342;8.146;2022-10-23T14:15:37;1.63;;;1.27;;
823;SDS011;373;49.342;8.146;2022-10-23T14:18:08;2.90;;;1.20;;
823;SDS011;373;49.342;8.146;2022-10-23T14:20:36;1.60;;;1.50;;
823;SDS011;373;49.342;8.146;2022-10-23T14:23:04;1.42;;;1.10;;
823;SDS011;373;49.342;8.146;2022-10-23T14:25:31;2.35;;;1.55;;
823;SDS011;373;49.342;8.146;2022-10-23T14:27:59;1.70;;;1.17;;
823;SDS011;373;49.342;8.146;2022-10-23T14:30:27;1.60;;;1.45;;
823;SDS011;373;49.342;8.146;2022-10-23T14:32:54;2.15;;;1.48;;
823;SDS011;373;49.342;8.146;2022-10-23T14:35:21;3.00;;;1.83;;
823;SDS011;373;49.342;8.146;2022-10-23T14:37:49;2.05;;;1.30;;
823;SDS011;373;49.342;8.146;2022-10-23T14:40:17;1.77;;;1.27;;
823;SDS011;373;49.342;8.146;2022-10-23T14:42:45;3.90;;;1.85;;
823;SDS011;373;49.342;8.146;2022-10-23T14:45:14;2.58;;;1.55;;
823;SDS011;373;49.342;8.146;2022-10-23T14:47:41;2.35;;;1.60;;
823;SDS011;373;49.342;8.146;2022-10-23T14:50:09;3.75;;;1.42;;
823;SDS011;373;49.342;8.146;2022-10-23T14:52:37;2.30;;;1.80;;
823;SDS011;373;49.342;8.146;2022-10-23T14:55:05;2.15;;;1.95;;
823;SDS011;373;49.342;8.146;2022-10-23T14:57:33;3.00;;;2.13;;
823;SDS011;373;49.342;8.146;2022-10-23T15:00:00;2.53;;;1.58;;
823;SDS011;373;49.342;8.146;2022-10-23T15:02:29;3.17;;;1.77;;
823;SDS011;373;49.342;8.146;2022-10-23T15:04:56;1.70;;;1.48;;
823;SDS011;373;49.342;8.146;2022-10-23T15:07:23;3.08;;;1.55;;
823;SDS011;373;49.342;8.146;2022-10-23T15:09:50;3.08;;;1.42;;
823;SDS011;373;49.342;8.146;2022-10-23T15:12:18;4.15;;;1.75;;
823;SDS011;373;49.342;8.146;2022-10-23T15:15:27;2.40;;;1.35;;
823;SDS011;373;49.342;8.146;2022-10-23T15:17:56;3.17;;;1.20;;
823;SDS011;373;49.342;8.146;2022-10-23T15:20:23;4.45;;;1.75;;
823;SDS011;373;49.342;8.146;2022-10-23T15:22:51;2.45;;;1.38;;
823;SDS011;373;49.342;8.146;2022-10-23T15:25:18;2.72;;;1.77;;
823;SDS011;373;49.342;8.146;2022-10-23T15:27:45;1.92;;;1.50;;
823;SDS011;373;49.342;8.146;2022-10-23T15:30:12;2.92;;;1.63;;
823;SDS011;373;49.342;8.146;2022-10-23T15:32:40;2.15;;;1.27;;
823;SDS011;373;49.342;8.146;2022-10-23T15:35:10;1.98;;;1.60;;
823;SDS011;373;49.342;8.146;2022-10-23T15:37:37;2.83;;;1.70;;
823;SDS011;373;49.342;8.146;2022-10-23T15:40:05;1.42;;;1.13;;
823;SDS011;373;49.342;8.146;2022-10-23T15:42:36;1.63;;;1.52;;
823;SDS011;373;49.342;8.146;2022-10-23T15:45:04;3.88;;;1.60;;
823;SDS011;373;49.342;8.146;2022-10-23T15:47:32;4.20;;;1.60;;
823;SDS011;373;49.342;8.146;2022-10-23T15:49:59;3.08;;;1.38;;
823;SDS011;373;49.342;8.146;2022-10-23T15:52:28;3.13;;;1.73;;
823;SDS011;373;49.342;8.146;2022-10-23T15:54:55;1.92;;;1.70;;
823;SDS011;373;49.342;8.146;2022-10-23T15:57:22;4.60;;;2.63;;
823;SDS011;373;49.342;8.146;2022-10-23T15:59:51;6.82;;;1.92;;
823;SDS011;373;49.342;8.146;2022-10-23T16:02:18;4.18;;;2.20;;
823;SDS011;373;49.342;8.146;2022-10-23T16:04:46;13.80;;;12.50;;
823;SDS011;373;49.342;8.146;2022-10-23T16:07:14;5.97;;;5.47;;
823;SDS011;373;49.342;8.146;2022-10-23T16:09:42;2.50;;;2.30;;
823;SDS011;373;49.342;8.146;2022-10-23T16:12:09;2.88;;;1.85;;
823;SDS011;373;49.342;8.146;2022-10-23T16:14:37;2.50;;;1.98;;
823;SDS011;373;49.342;8.146;2022-10-23T16:17:05;2.97;;;2.78;;
823;SDS011;373;49.342;8.146;2022-10-23T16:19:33;3.13;;;2.83;;
823;SDS011;373;49.342;8.146;2022-10-23T16:22:00;3.53;;;2.80;;
823;SDS011;373;49.342;8.146;2022-10-23T16:24:28;2.88;;;2.47;;
823;SDS011;373;49.342;8.146;2022-10-23T16:26:57;2.83;;;2.10;;
823;SDS011;373;49.342;8.146;2022-10-23T16:29:25;2.75;;;2.20;;
823;SDS011;373;49.342;8.146;2022-10-23T16:31:54;3.33;;;2.50;;
823;SDS011;373;49.342;8.146;2022-10-23T16:34:24;3.83;;;2.10;;
823;SDS011;373;49.342;8.146;2022-10-23T16:36:51;3.00;;;2.70;;
823;SDS011;373;49.342;8.146;2022-10-23T16:39:19;5.90;;;3.80;;
823;SDS011;373;49.342;8.146;2022-10-23T16:42:07;4.00;;;2.95;;
823;SDS011;373;49.342;8.146;2022-10-23T16:44:58;2.72;;;2.30;;
823;SDS011;373;49.342;8.146;2022-10-23T16:47:25;2.92;;;2.13;;
823;SDS011;373;49.342;8.146;2022-10-23T16:49:55;2.38;;;2.13;;
823;SDS011;373;49.342;8.146;2022-10-23T16:52:23;1.92;;;1.60;;
823;SDS011;373;49.342;8.146;2022-10-23T16:54:50;4.70;;;1.58;;
823;SDS011;373;49.342;8.146;2022-10-23T16:57:19;4.20;;;1.67;;
823;SDS011;373;49.342;8.146;2022-10-23T16:59:46;4.65;;;1.58;;
823;SDS011;373;49.342;8.146;2022-10-23T17:02:13;3.15;;;1.65;;
823;SDS011;373;49.342;8.146;2022-10-23T17:04:40;6.35;;;2.10;;
823;SDS011;373;49.342;8.146;2022-10-23T17:07:07;2.60;;;1.50;;
823;SDS011;373;49.342;8.146;2022-10-23T17:09:37;3.22;;;1.98;;
823;SDS011;373;49.342;8.146;2022-10-23T17:12:04;2.95;;;1.63;;
823;SDS011;373;49.342;8.146;2022-10-23T17:14:33;4.13;;;1.83;;
823;SDS011;373;49.342;8.146;2022-10-23T17:17:02;5.07;;;1.77;;
823;SDS011;373;49.342;8.146;2022-10-23T17:19:31;4.90;;;1.98;;
823;SDS011;373;49.342;8.146;2022-10-23T17:21:58;4.45;;;1.45;;
823;SDS011;373;49.342;8.146;2022-10-23T17:24:25;3.63;;;2.28;;
823;SDS011;373;49.342;8.146;2022-10-23T17:26:53;8.77;;;2.40;;
823;SDS011;373;49.342;8.146;2022-10-23T17:29:20;9.05;;;2.90;;
823;SDS011;373;49.342;8.146;2022-10-23T17:31:49;8.10;;;3.28;;
823;SDS011;373;49.342;8.146;2022-10-23T17:34:17;9.13;;;2.85;;
823;SDS011;373;49.342;8.146;2022-10-23T17:36:46;7.40;;;2.95;;
823;SDS011;373;49.342;8.146;2022-10-23T17:39:16;7.90;;;2.70;;
823;SDS011;373;49.342;8.146;2022-10-23T17:41:45;8.18;;;3.20;;
823;SDS011;373;49.342;8.146;2022-10-23T17:44:12;7.78;;;3.17;;
823;SDS011;373;49.342;8.146;2022-10-23T17:46:40;12.32;;;4.30;;
823;SDS011;373;49.342;8.146;2022-10-23T17:49:09;5.95;;;3.17;;
823;SDS011;373;49.342;8.146;2022-10-23T17:51:37;5.80;;;2.65;;
823;SDS011;373;49.342;8.146;2022-10-23T17:54:05;7.38;;;3.08;;
823;SDS011;373;49.342;8.146;2022-10-23T17:59:03;4.20;;;2.10;;